Time;durP1;ratioP1;P1;durP2;ratioP2;P2;SDS_P1;SDS_P2;PMS_P1;PMS_P2;Temp;Humidity;BMP_temperature;BMP_pressure;BME280_temperature;BME280_humidity;BME280_pressure;Samples;Min_cycle;Max_cycle;Signal;HPM_P1;HPM_P2
2022/08/23 00:00:25;;;;;;;9.25;3.05;;;;;;;17.76;100.00;101516.06;4984691;28;20158;-77
2022/08/23 00:02:55;;;;;;;6.95;2.80;;;;;;;17.73;100.00;101514.34;4989056;28;20046;-77
2022/08/23 00:05:23;;;;;;;5.00;2.90;;;;;;;17.70;100.00;101519.72;4981256;28;20050;-78
2022/08/23 00:07:52;;;;;;;7.03;3.03;;;;;;;17.69;100.00;101520.66;4972756;28;20050;-77
2022/08/23 00:10:20;;;;;;;6.45;3.30;;;;;;;17.67;100.00;101502.91;4981154;28;20322;-76
2022/08/23 00:12:49;;;;;;;7.43;2.70;;;;;;;17.65;100.00;101513.56;4956805;28;20499;-76
2022/08/23 00:15:19;;;;;;;8.48;3.15;;;;;;;17.62;100.00;101510.09;4982214;28;20069;-78
2022/08/23 00:17:48;;;;;;;5.28;3.03;;;;;;;17.59;100.00;101504.81;4994287;28;20030;-78
2022/08/23 00:20:19;;;;;;;6.28;2.90;;;;;;;17.57;100.00;101506.63;4989125;28;20459;-78
2022/08/23 00:22:47;;;;;;;5.78;2.70;;;;;;;17.55;100.00;101509.31;4990879;28;20050;-78
2022/08/23 00:25:16;;;;;;;5.97;2.60;;;;;;;17.53;100.00;101505.78;4990810;28;20283;-78
2022/08/23 00:27:44;;;;;;;7.38;3.90;;;;;;;17.51;100.00;101508.47;4955958;28;20057;-78
2022/08/23 00:30:14;;;;;;;5.75;2.85;;;;;;;17.47;100.00;101506.75;4981459;28;20072;-78
2022/08/23 00:32:42;;;;;;;5.70;3.00;;;;;;;17.45;100.00;101500.56;4985791;28;20518;-78
2022/08/23 00:35:12;;;;;;;5.40;2.90;;;;;;;17.44;100.00;101504.13;4968602;28;20373;-76
2022/08/23 00:37:57;;;;;;;7.90;3.42;;;;;;;17.41;100.00;101496.19;4988737;28;20061;-78
2022/08/23 00:40:50;;;;;;;4.32;3.05;;;;;;;17.40;100.00;101498.88;4973128;28;20069;-77
2022/08/23 00:49:18;;;;;;;7.40;3.28;;;;;;;17.31;100.00;101505.22;4954321;28;22860;-76
2022/08/23 00:52:07;;;;;;;5.97;3.55;;;;;;;17.30;100.00;101506.13;4976199;28;20039;-78
2022/08/23 00:54:38;;;;;;;8.75;3.40;;;;;;;17.26;100.00;101499.97;4968337;28;20050;-77
2022/08/23 00:57:14;;;;;;;6.72;3.17;;;;;;;17.24;100.00;101507.09;4931677;28;20236;-78
2022/08/23 00:59:42;;;;;;;5.93;3.28;;;;;;;17.22;100.00;101505.34;4968340;28;20057;-77
2022/08/23 01:02:12;;;;;;;8.50;3.38;;;;;;;17.20;100.00;101504.47;4983009;28;20073;-77
2022/08/23 01:04:45;;;;;;;5.00;3.30;;;;;;;17.17;100.00;101496.56;4981162;28;20372;-77
2022/08/23 01:07:26;;;;;;;5.72;3.50;;;;;;;17.15;100.00;101509.88;4975292;28;20268;-77
2022/08/23 01:09:56;;;;;;;;;;;;;;;17.14;100.00;101503.69;4992546;28;20058;-77
2022/08/23 01:12:35;;;;;;;4.75;3.97;;;;;;;17.14;100.00;101502.78;4949769;28;20371;-78
2022/08/23 01:15:17;;;;;;;9.23;4.75;;;;;;;17.13;100.00;101495.72;4996773;28;20264;-77
2022/08/23 01:18:04;;;;;;;7.70;4.82;;;;;;;17.13;100.00;101488.59;4985425;28;20046;-77
2022/08/23 01:20:51;;;;;;;7.78;5.10;;;;;;;17.12;100.00;101486.81;4995231;28;20042;-77
2022/08/23 01:23:38;;;;;;;8.18;4.78;;;;;;;17.10;100.00;101488.63;4966920;28;20050;-77
2022/08/23 01:26:09;;;;;;;9.88;4.53;;;;;;;17.08;100.00;101495.75;4998304;28;20046;-77
2022/08/23 01:28:39;;;;;;;6.55;4.00;;;;;;;17.10;100.00;101491.28;4961220;28;20050;-77
2022/08/23 01:31:15;;;;;;;6.03;3.95;;;;;;;17.08;100.00;101487.75;4976674;28;20031;-76
2022/08/23 01:33:48;;;;;;;8.98;4.80;;;;;;;17.05;100.00;101493.16;4985892;28;20042;-77
2022/08/23 01:36:18;;;;;;;6.60;4.18;;;;;;;17.03;100.00;101494.06;4946331;28;20042;-76
2022/08/23 01:38:49;;;;;;;5.45;4.18;;;;;;;17.00;100.00;101492.31;4935663;28;20051;-77
2022/08/23 01:41:18;;;;;;;8.07;5.25;;;;;;;16.99;100.00;101489.69;4967015;28;20311;-76
2022/08/23 01:43:47;;;;;;;8.70;5.40;;;;;;;16.98;100.00;101491.47;4921047;28;20053;-77
2022/08/23 01:46:21;;;;;;;10.18;5.72;;;;;;;16.97;100.00;101499.47;4965208;28;20045;-77
2022/08/23 01:48:50;;;;;;;6.63;5.72;;;;;;;16.95;100.00;101505.69;4947537;28;20051;-77
2022/08/23 01:51:20;;;;;;;7.23;5.83;;;;;;;16.92;100.00;101496.88;4970435;28;20043;-77
2022/08/23 01:53:50;;;;;;;8.05;5.45;;;;;;;16.92;100.00;101496.88;4969956;28;20042;-78
2022/08/23 01:56:19;;;;;;;16.13;12.98;;;;;;;16.92;100.00;101494.22;4935819;28;20068;-78
2022/08/23 01:59:08;;;;;;;12.10;9.00;;;;;;;16.92;100.00;101496.88;4928923;28;20279;-76
2022/08/23 02:01:41;;;;;;;13.75;10.45;;;;;;;16.92;100.00;101491.56;4977753;28;20038;-76
2022/08/23 02:04:10;;;;;;;10.65;9.15;;;;;;;16.91;100.00;101495.97;4954876;28;20058;-78
2022/08/23 02:06:39;;;;;;;11.32;8.15;;;;;;;16.90;100.00;101502.22;4957570;28;20042;-77
2022/08/23 02:09:08;;;;;;;12.18;8.80;;;;;;;16.88;100.00;101503.13;4952056;28;20146;-78
2022/08/23 02:11:47;;;;;;;10.07;7.70;;;;;;;16.87;100.00;101504.91;4959455;28;20057;-78
2022/08/23 02:14:19;;;;;;;12.30;8.45;;;;;;;16.85;100.00;101505.84;4950345;28;20595;-77
2022/08/23 02:16:54;;;;;;;14.70;8.63;;;;;;;16.82;100.00;101508.50;4976613;28;20052;-77
2022/08/23 02:19:33;;;;;;;15.15;9.60;;;;;;;16.79;100.00;101504.09;4986052;28;20530;-77
2022/08/23 02:22:05;;;;;;;13.10;8.85;;;;;;;16.77;100.00;101508.56;4967513;28;20226;-77
2022/08/23 02:24:38;;;;;;;11.57;9.27;;;;;;;16.75;100.00;101497.94;4983092;28;20507;-76
2022/08/23 02:27:08;;;;;;;12.60;8.38;;;;;;;16.72;100.00;101489.97;4951139;28;20335;-76
2022/08/23 02:29:43;;;;;;;11.65;9.10;;;;;;;16.69;100.00;101495.34;4937832;28;20034;-77
2022/08/23 02:32:15;;;;;;;12.27;9.00;;;;;;;16.67;100.00;101491.81;4986286;28;20373;-78
2022/08/23 02:34:45;;;;;;;10.88;8.38;;;;;;;16.66;100.00;101495.38;4968417;28;20034;-78
2022/08/23 02:37:33;;;;;;;10.38;8.30;;;;;;;16.65;100.00;101498.03;4985509;28;20050;-77
2022/08/23 02:40:04;;;;;;;14.85;10.27;;;;;;;16.63;100.00;101494.53;4954107;28;20046;-77
2022/08/23 02:42:33;;;;;;;23.30;12.18;;;;;;;16.65;100.00;101498.91;4968039;28;20050;-77
2022/08/23 02:45:03;;;;;;;17.00;9.90;;;;;;;16.67;100.00;101497.16;4943639;28;20038;-76
2022/08/23 02:47:35;;;;;;;16.30;12.60;;;;;;;16.69;100.00;101500.66;4961729;28;20043;-76
2022/08/23 02:50:19;;;;;;;17.40;12.75;;;;;;;16.72;100.00;101510.38;4955944;28;20173;-76
2022/08/23 02:52:47;;;;;;;18.80;13.02;;;;;;;16.75;100.00;101503.25;4955059;28;20043;-77
2022/08/23 02:55:16;;;;;;;18.15;11.73;;;;;;;16.80;100.00;101492.53;4964054;28;23038;-77
2022/08/23 02:57:44;;;;;;;18.95;12.38;;;;;;;16.84;100.00;101499.63;4983067;28;20408;-77
2022/08/23 03:00:16;;;;;;;17.67;11.68;;;;;;;16.88;100.00;101496.03;4947132;28;20039;-77
2022/08/23 03:02:45;;;;;;;17.33;9.70;;;;;;;16.90;100.00;101488.91;4942565;28;20488;-77
2022/08/23 03:05:14;;;;;;;19.35;10.15;;;;;;;16.92;100.00;101494.22;4964832;28;20047;-77
2022/08/23 03:07:43;;;;;;;16.42;9.90;;;;;;;16.92;100.00;101486.22;4979000;28;20037;-77
2022/08/23 03:10:12;;;;;;;13.00;9.93;;;;;;;16.92;100.00;101488.91;4928050;28;20352;-77
2022/08/23 03:12:50;;;;;;;13.95;9.02;;;;;;;16.92;100.00;101481.78;4964303;28;20046;-77
2022/08/23 03:15:19;;;;;;;15.32;8.55;;;;;;;16.93;100.00;101487.97;4918449;28;20250;-77
2022/08/23 03:17:48;;;;;;;11.27;8.48;;;;;;;16.90;100.00;101488.91;4976699;28;20054;-77
2022/08/23 03:20:18;;;;;;;13.13;8.97;;;;;;;16.89;100.00;101491.59;4989629;28;20160;-76
2022/08/23 03:22:47;;;;;;;10.55;8.20;;;;;;;16.85;100.00;101493.41;4949684;28;20285;-78
2022/08/23 03:25:25;;;;;;;11.93;8.40;;;;;;;16.83;100.00;101495.19;4934177;28;20065;-76
2022/08/23 03:28:06;;;;;;;12.40;7.85;;;;;;;16.79;100.00;101488.13;4977647;28;20281;-77
2022/08/23 03:30:39;;;;;;;15.05;7.43;;;;;;;16.77;100.00;101492.59;4918763;28;20035;-76
2022/08/23 03:33:08;;;;;;;11.50;7.53;;;;;;;16.74;100.00;101488.16;4958946;28;20252;-77
2022/08/23 03:35:37;;;;;;;10.15;7.18;;;;;;;16.72;100.00;101497.06;4964870;28;20057;-78
2022/08/23 03:38:06;;;;;;;11.02;7.72;;;;;;;16.69;100.00;101497.09;4961762;28;20050;-76
2022/08/23 03:40:35;;;;;;;8.88;7.95;;;;;;;16.64;100.00;101494.50;4972266;28;20057;-76
2022/08/23 03:43:06;;;;;;;15.27;8.13;;;;;;;16.62;100.00;101493.66;4956924;28;20610;-76
2022/08/23 03:45:36;;;;;;;9.05;6.78;;;;;;;16.61;100.00;101493.66;4943340;28;20046;-77
2022/08/23 03:48:05;;;;;;;12.82;7.18;;;;;;;16.59;100.00;101498.13;4970256;28;20640;-76
2022/08/23 03:50:35;;;;;;;11.30;7.03;;;;;;;16.57;100.00;101503.47;4967271;28;20050;-77
2022/08/23 03:53:03;;;;;;;10.73;7.50;;;;;;;16.55;100.00;101494.63;4945478;28;20061;-76
2022/08/23 03:55:32;;;;;;;8.23;7.00;;;;;;;16.52;100.00;101499.94;4938049;28;20507;-77
2022/08/23 03:58:10;;;;;;;8.80;6.72;;;;;;;16.50;100.00;101493.78;4972611;28;20269;-76
2022/08/23 04:00:38;;;;;;;10.35;7.30;;;;;;;16.47;100.00;101504.47;4968687;28;20503;-76
2022/08/23 04:03:06;;;;;;;9.95;7.53;;;;;;;16.45;100.00;101508.94;4914051;28;20042;-76
2022/08/23 04:05:50;;;;;;;9.57;7.45;;;;;;;16.42;100.00;101500.97;4963403;28;20049;-78
2022/08/23 04:08:19;;;;;;;12.05;7.82;;;;;;;16.40;100.00;101505.44;4979060;28;20518;-77
2022/08/23 04:11:03;;;;;;;15.95;8.45;;;;;;;16.42;100.00;101508.94;4952761;28;20038;-76
2022/08/23 04:13:34;;;;;;;12.88;8.43;;;;;;;16.41;100.00;101508.06;4978637;28;20054;-77
2022/08/23 04:16:04;;;;;;;12.27;8.85;;;;;;;16.41;100.00;101509.81;4922603;28;20069;-78
2022/08/23 04:18:34;;;;;;;14.85;10.55;;;;;;;16.43;100.00;101514.25;4976347;28;20073;-78
2022/08/23 04:21:09;;;;;;;10.20;8.55;;;;;;;16.46;100.00;101505.34;4979087;28;20290;-78
2022/08/23 04:23:38;;;;;;;15.18;10.02;;;;;;;16.49;100.00;101506.19;4968265;28;20041;-77
2022/08/23 04:26:08;;;;;;;14.15;10.85;;;;;;;16.50;100.00;101510.63;4954291;28;20280;-77
2022/08/23 04:28:38;;;;;;;13.13;10.65;;;;;;;16.50;100.00;101512.41;4946317;28;20042;-76
2022/08/23 04:31:07;;;;;;;14.90;10.40;;;;;;;16.50;100.00;101515.06;4919434;28;20597;-77
2022/08/23 04:33:37;;;;;;;;;;;;;;;16.49;100.00;101521.28;4944269;28;20396;-77
2022/08/23 04:36:10;;;;;;;16.65;10.57;;;;;;;16.48;100.00;101517.75;4962039;28;20131;-77
2022/08/23 04:38:38;;;;;;;14.02;11.13;;;;;;;16.47;100.00;101515.09;4960800;28;20034;-77
2022/08/23 04:44:06;;;;;;;13.82;9.27;;;;;;;16.49;100.00;101515.97;4930241;28;20252;-76
2022/08/23 04:46:36;;;;;;;13.38;9.82;;;;;;;16.50;100.00;101515.97;4944975;28;20057;-78
2022/08/23 04:49:04;;;;;;;15.50;10.02;;;;;;;16.52;100.00;101521.25;4944221;28;20272;-78
2022/08/23 04:51:33;;;;;;;15.55;9.15;;;;;;;16.52;100.00;101523.91;4989593;28;20057;-77
2022/08/23 04:54:02;;;;;;;12.25;9.57;;;;;;;16.53;100.00;101523.00;4944831;28;20039;-78
2022/08/23 04:56:48;;;;;;;12.50;10.32;;;;;;;16.54;100.00;101520.34;4976112;28;20400;-76
2022/08/23 04:59:20;;;;;;;13.80;9.48;;;;;;;16.55;100.00;101524.75;4950723;28;20052;-76
2022/08/23 05:01:50;;;;;;;14.05;9.57;;;;;;;16.57;100.00;101530.06;4955050;28;20054;-77
2022/08/23 05:04:19;;;;;;;17.77;10.13;;;;;;;16.59;100.00;101524.72;4912779;28;20424;-77
2022/08/23 05:06:48;;;;;;;12.45;10.65;;;;;;;16.60;100.00;101524.72;4970384;28;20091;-77
2022/08/23 05:09:17;;;;;;;20.58;10.20;;;;;;;16.62;100.00;101530.91;4923965;28;20051;-77
2022/08/23 05:11:48;;;;;;;14.20;10.00;;;;;;;16.65;100.00;101529.97;4925071;28;20050;-79
2022/08/23 05:14:19;;;;;;;12.77;11.10;;;;;;;16.67;100.00;101537.06;4955545;28;20357;-78
2022/08/23 05:16:47;;;;;;;12.13;10.90;;;;;;;16.69;100.00;101543.25;4966936;28;20035;-77
2022/08/23 05:19:16;;;;;;;14.00;12.13;;;;;;;16.72;100.00;101532.53;4906057;28;21014;-77
2022/08/23 05:21:47;;;;;;;14.15;11.23;;;;;;;16.74;100.00;101538.72;4936322;28;20047;-77
2022/08/23 05:24:16;;;;;;;12.98;10.55;;;;;;;16.79;100.00;101537.81;4952982;28;20421;-77
2022/08/23 05:26:47;;;;;;;11.88;10.38;;;;;;;16.84;100.00;101538.66;4953643;28;20035;-77
2022/08/23 05:29:16;;;;;;;15.20;11.40;;;;;;;16.89;100.00;101539.50;4954570;28;20255;-76
2022/08/23 05:31:49;;;;;;;15.75;10.23;;;;;;;16.94;100.00;101550.97;4960318;28;20534;-77
2022/08/23 05:34:22;;;;;;;12.32;10.57;;;;;;;17.00;100.00;101552.69;4929391;28;21150;-77
2022/08/23 05:36:53;;;;;;;12.02;10.65;;;;;;;17.04;100.00;101554.41;4962886;28;20054;-77
2022/08/23 05:39:28;;;;;;;13.27;9.85;;;;;;;17.08;100.00;101562.31;4972317;28;20046;-78
2022/08/23 05:42:08;;;;;;;15.63;10.63;;;;;;;17.13;100.00;101557.84;4928147;28;20404;-76
2022/08/23 05:44:37;;;;;;;12.43;8.90;;;;;;;17.20;100.00;101555.09;4970738;28;20030;-77
2022/08/23 05:47:13;;;;;;;10.77;9.27;;;;;;;17.29;100.00;101566.50;4934570;28;20534;-78
2022/08/23 05:50:03;;;;;;;12.48;9.90;;;;;;;17.40;100.00;101566.34;4939320;28;20602;-78
2022/08/23 05:52:35;;;;;;;12.25;10.27;;;;;;;17.47;100.00;101565.38;4973052;28;20424;-79
2022/08/23 05:55:05;;;;;;;12.63;10.05;;;;;;;17.58;100.00;101567.91;4956404;28;20391;-78
2022/08/23 05:57:48;;;;;;;11.73;10.52;;;;;;;17.68;100.00;101571.31;4972650;28;20242;-78
2022/08/23 06:00:17;;;;;;;16.08;10.50;;;;;;;17.77;100.00;101572.94;4957319;28;20041;-79
2022/08/23 06:02:54;;;;;;;17.33;10.60;;;;;;;17.90;100.00;101571.88;4972328;28;20085;-79
2022/08/23 06:05:23;;;;;;;13.13;9.60;;;;;;;18.12;100.00;101578.63;4934844;28;20034;-79
2022/08/23 06:07:52;;;;;;;10.93;9.20;;;;;;;18.39;100.00;101575.50;4973175;28;20276;-79
2022/08/23 06:10:23;;;;;;;11.15;9.02;;;;;;;18.69;100.00;101576.72;4957182;28;20042;-79
2022/08/23 06:13:02;;;;;;;8.70;7.82;;;;;;;18.88;100.00;101583.53;4935183;28;20119;-78
2022/08/23 06:15:31;;;;;;;;;;;;;;;18.99;100.00;101582.44;4968836;28;20050;-78
2022/08/23 06:18:00;;;;;;;16.25;8.60;;;;;;;19.05;100.00;101587.63;4956157;28;20394;-77
2022/08/23 06:20:31;;;;;;;10.32;8.57;;;;;;;19.09;100.00;101582.22;4948784;28;20042;-78
2022/08/23 06:23:06;;;;;;;9.05;8.07;;;;;;;19.15;100.00;101591.00;4992833;28;20054;-77
2022/08/23 06:25:37;;;;;;;9.35;8.32;;;;;;;19.18;100.00;101590.94;4988196;28;20397;-79
2022/08/23 06:28:12;;;;;;;10.65;7.68;;;;;;;19.20;100.00;101586.44;4941576;28;20045;-78
2022/08/23 06:30:42;;;;;;;;;;;;;;;19.20;100.00;101581.09;4976312;28;20588;-77
2022/08/23 06:33:23;;;;;;;9.80;8.02;;;;;;;19.21;100.00;101581.06;4961939;28;19922;-80
2022/08/23 06:36:25;;;;;;;8.70;7.63;;;;;;;19.26;100.00;101583.63;4967107;28;20045;-78
2022/08/23 06:39:15;;;;;;;10.02;8.68;;;;;;;19.33;100.00;101579.94;5007822;28;20399;-78
2022/08/23 06:42:13;;;;;;;12.75;9.05;;;;;;;19.37;100.00;101570.06;5001743;28;20044;-77
2022/08/23 06:45:05;;;;;;;12.43;10.05;;;;;;;19.40;100.00;101578.00;4995331;28;20041;-78
2022/08/23 06:47:43;;;;;;;11.17;8.57;;;;;;;19.43;100.00;101575.25;4992217;28;20455;-77
2022/08/23 06:50:11;;;;;;;12.23;8.15;;;;;;;19.50;100.00;101576.88;4978542;28;20487;-78
2022/08/23 06:53:21;;;;;;;9.67;8.07;;;;;;;19.62;100.00;101575.72;4954592;28;20447;-77
2022/08/23 06:56:16;;;;;;;10.68;8.05;;;;;;;19.75;100.00;101574.56;4954106;28;20061;-79
2022/08/23 06:59:05;;;;;;;12.60;8.60;;;;;;;19.91;100.00;101567.06;5008898;28;20391;-79
2022/08/23 07:02:03;;;;;;;11.40;7.20;;;;;;;20.16;100.00;101579.84;4998656;28;20041;-78
2022/08/23 07:04:54;;;;;;;12.20;7.38;;;;;;;20.43;100.00;101572.88;5014116;28;20041;-78
2022/08/23 07:07:38;;;;;;;7.88;6.45;;;;;;;20.56;100.00;101574.31;5003405;28;20049;-78
2022/08/23 07:10:14;;;;;;;10.45;6.68;;;;;;;20.70;100.00;101565.94;4957158;28;20041;-78
2022/08/23 07:12:44;;;;;;;10.68;6.60;;;;;;;20.83;100.00;101574.50;4970678;28;20048;-78
2022/08/23 07:15:14;;;;;;;12.18;7.90;;;;;;;20.95;100.00;101578.66;4981100;28;20503;-78
2022/08/23 07:17:45;;;;;;;10.32;7.45;;;;;;;21.01;100.00;101582.00;4995989;28;20034;-78
2022/08/23 07:20:14;;;;;;;12.75;7.78;;;;;;;21.11;100.00;101584.44;5003528;28;20042;-78
2022/08/23 07:22:44;;;;;;;9.77;7.40;;;;;;;21.21;100.00;101588.63;4980985;28;20044;-78
2022/08/23 07:25:13;;;;;;;10.25;7.82;;;;;;;21.27;100.00;101585.75;4951361;28;20064;-79
2022/08/23 07:27:47;;;;;;;9.82;7.38;;;;;;;21.34;100.00;101595.38;4984293;28;20038;-77
2022/08/23 07:30:19;;;;;;;9.63;7.32;;;;;;;21.41;100.00;101598.72;4990864;28;20270;-78
2022/08/23 07:32:48;;;;;;;13.00;7.63;;;;;;;21.46;100.00;101594.16;4966530;28;20056;-78
2022/08/23 07:35:27;;;;;;;9.23;5.90;;;;;;;21.53;100.00;101589.47;4988330;28;20714;-78
2022/08/23 07:37:58;;;;;;;13.63;6.57;;;;;;;21.56;100.00;101602.78;4983347;28;20046;-78
2022/08/23 07:40:32;;;;;;;11.27;6.00;;;;;;;21.62;100.00;101599.91;4974455;28;20041;-77
2022/08/23 07:43:06;;;;;;;8.95;6.32;;;;;;;21.68;100.00;101598.84;4995718;28;20045;-78
2022/08/23 07:45:39;;;;;;;7.78;5.28;;;;;;;21.71;100.00;101601.44;4989180;28;20046;-77
2022/08/23 07:48:12;;;;;;;8.82;5.80;;;;;;;21.77;100.00;101601.22;4984595;28;20042;-78
2022/08/23 07:51:13;;;;;;;10.35;5.00;;;;;;;21.80;100.00;101602.03;4980845;28;20052;-78
2022/08/23 07:53:41;;;;;;;;;;;;;;;21.82;100.00;101601.97;4984103;28;20376;-77
2022/08/23 07:56:17;;;;;;;7.47;6.05;;;;;;;21.83;100.00;101600.16;4937275;28;19929;-78
2022/08/23 07:59:17;;;;;;;8.05;5.78;;;;;;;21.86;100.00;101602.75;4986468;28;20053;-78
2022/08/23 08:02:05;;;;;;;10.88;5.65;;;;;;;21.93;100.00;101612.38;4959730;28;20037;-78
2022/08/23 08:04:36;;;;;;;12.02;4.97;;;;;;;22.03;100.00;101604.91;4986552;28;20038;-78
2022/08/23 08:07:04;;;;;;;10.90;5.43;;;;;;;22.09;100.00;101610.94;4996681;28;20044;-78
2022/08/23 08:09:58;;;;;;;7.30;5.53;;;;;;;22.18;100.00;101623.19;5008631;28;20042;-78
2022/08/23 08:12:30;;;;;;;8.27;5.25;;;;;;;22.26;100.00;101626.50;4974273;28;20359;-77
2022/08/23 08:15:05;;;;;;;6.97;4.53;;;;;;;22.34;100.00;101619.09;4979774;28;20054;-78
2022/08/23 08:17:39;;;;;;;12.10;5.20;;;;;;;22.43;100.00;101625.94;4998346;28;20045;-78
2022/08/23 08:20:10;;;;;;;5.43;4.80;;;;;;;22.50;100.00;101619.44;5004582;28;20045;-78
2022/08/23 08:22:46;;;;;;;9.73;4.45;;;;;;;22.61;100.00;101620.84;5007339;28;20042;-77
2022/08/23 08:25:42;;;;;;;6.32;3.92;;;;;;;22.73;100.00;101620.44;4988066;28;20487;-78
2022/08/23 08:28:13;;;;;;;6.95;3.72;;;;;;;22.82;100.00;101628.19;4958522;28;20037;-79
2022/08/23 08:30:43;;;;;;;6.00;3.45;;;;;;;22.85;100.00;101636.13;4977786;28;20053;-78
2022/08/23 08:33:13;;;;;;;10.85;4.13;;;;;;;22.85;99.67;101628.06;4928404;28;20756;-78
2022/08/23 08:35:47;;;;;;;6.30;3.25;;;;;;;22.87;99.58;101625.31;5001324;28;20392;-78
2022/08/23 08:38:28;;;;;;;4.07;3.67;;;;;;;22.93;99.24;101627.78;4993050;28;20460;-78
2022/08/23 08:41:14;;;;;;;6.80;4.43;;;;;;;23.00;98.04;101617.69;4983286;28;20496;-78
2022/08/23 08:44:07;;;;;;;4.75;4.20;;;;;;;23.12;97.86;101628.03;4959849;28;20507;-78
2022/08/23 08:46:51;;;;;;;5.07;3.38;;;;;;;23.23;97.33;101617.75;4986391;28;20034;-78
2022/08/23 08:49:31;;;;;;;5.15;4.50;;;;;;;23.38;96.56;101616.28;4985861;28;20242;-78
2022/08/23 08:52:12;;;;;;;7.43;4.45;;;;;;;23.51;95.29;101619.38;4993164;28;20042;-78
2022/08/23 08:54:43;;;;;;;4.82;4.13;;;;;;;23.60;95.11;101615.47;5007338;28;20045;-77
2022/08/23 08:57:19;;;;;;;9.02;3.92;;;;;;;23.77;95.84;101623.75;4976279;28;20038;-78
2022/08/23 09:00:03;;;;;;;7.03;4.00;;;;;;;23.88;95.05;101621.53;4999569;28;20052;-78
2022/08/23 09:02:36;;;;;;;4.20;3.25;;;;;;;24.02;94.39;101620.09;4986546;28;20422;-78
2022/08/23 09:05:14;;;;;;;7.55;4.50;;;;;;;24.12;92.61;101616.97;4988318;28;20053;-77
2022/08/23 09:08:08;;;;;;;5.18;3.70;;;;;;;24.21;93.28;101622.91;4991593;28;20487;-79
2022/08/23 09:11:04;;;;;;;5.55;3.97;;;;;;;24.31;92.58;101613.50;4992423;28;20046;-78
2022/08/23 09:13:43;;;;;;;11.35;4.60;;;;;;;24.37;92.05;101617.75;4952207;28;20037;-79
2022/08/23 09:16:43;;;;;;;8.45;3.80;;;;;;;24.36;90.95;101613.31;4970144;28;20046;-78
2022/08/23 09:19:12;;;;;;;6.53;3.95;;;;;;;24.44;90.83;101613.84;4962314;28;20057;-79
2022/08/23 09:21:55;;;;;;;5.57;3.28;;;;;;;24.52;89.68;101620.69;5016655;28;20063;-78
2022/08/23 09:24:26;;;;;;;6.03;4.07;;;;;;;24.54;87.95;101617.03;4977753;28;20049;-79
2022/08/23 09:27:02;;;;;;;5.70;3.75;;;;;;;24.50;87.82;101611.78;4990632;28;20057;-81
2022/08/23 09:29:33;;;;;;;5.32;3.50;;;;;;;24.54;87.59;101617.94;4960662;28;20423;-78
2022/08/23 09:32:25;;;;;;;4.88;3.50;;;;;;;24.58;86.03;101616.88;4993495;28;20057;-78
2022/08/23 09:35:10;;;;;;;7.25;3.90;;;;;;;24.63;88.02;101616.66;4974027;28;20030;-79
2022/08/23 09:38:02;;;;;;;3.55;3.03;;;;;;;24.71;86.80;101615.38;4990076;28;20037;-79
2022/08/23 09:40:43;;;;;;;4.85;3.13;;;;;;;24.90;87.75;101619.97;4996701;28;20042;-79
2022/08/23 09:43:22;;;;;;;9.43;4.95;;;;;;;25.07;87.12;101611.97;4967722;28;20034;-79
2022/08/23 09:45:51;;;;;;;5.82;2.95;;;;;;;25.21;85.98;101616.72;4997665;28;20038;-79
2022/08/23 09:48:33;;;;;;;5.20;2.72;;;;;;;25.35;81.72;101615.25;4978920;28;20510;-79
2022/08/23 09:51:23;;;;;;;7.80;3.03;;;;;;;25.37;80.77;101618.75;5003564;28;20516;-79
2022/08/23 09:54:22;;;;;;;5.68;2.50;;;;;;;25.44;82.90;101618.41;4990149;28;20285;-79
2022/08/23 09:56:56;;;;;;;7.45;2.20;;;;;;;25.56;82.96;101603.47;4985942;28;20507;-78
2022/08/23 09:59:25;;;;;;;5.45;2.92;;;;;;;25.64;80.47;101606.66;4948497;28;20180;-79
2022/08/23 10:02:01;;;;;;;7.57;2.72;;;;;;;25.66;79.66;101603.88;4997364;28;20038;-79
2022/08/23 10:04:55;;;;;;;5.47;2.85;;;;;;;25.69;76.05;101603.75;4989908;28;20251;-78
2022/08/23 10:07:31;;;;;;;7.43;2.97;;;;;;;25.71;78.51;101603.66;4963518;28;20049;-79
2022/08/23 10:10:25;;;;;;;3.97;2.85;;;;;;;25.68;79.10;101592.06;4972933;28;20049;-80
2022/08/23 10:12:58;;;;;;;4.25;3.15;;;;;;;25.66;78.76;101593.09;5012186;28;20383;-79
2022/08/23 10:15:39;;;;;;;3.88;3.05;;;;;;;25.61;78.84;101598.69;4954475;28;20064;-78
2022/08/23 10:18:23;;;;;;;5.47;2.30;;;;;;;25.63;78.04;101593.22;5001056;28;20049;-79
2022/08/23 10:21:03;;;;;;;6.03;3.00;;;;;;;25.66;78.14;101587.69;4974600;28;20042;-79
2022/08/23 10:24:09;;;;;;;6.43;2.72;;;;;;;25.74;77.19;101595.41;5002025;28;20553;-79
2022/08/23 10:26:49;;;;;;;4.97;2.70;;;;;;;25.81;77.66;101588.78;4977553;28;21889;-78
2022/08/23 10:29:36;;;;;;;5.97;2.67;;;;;;;25.90;76.79;101590.13;4985135;28;20034;-81
2022/08/23 10:32:31;;;;;;;4.50;2.38;;;;;;;25.99;77.33;101596.00;4945551;28;20042;-79
2022/08/23 10:35:23;;;;;;;3.85;2.50;;;;;;;26.10;77.27;101592.75;5002110;28;20034;-79
2022/08/23 10:38:23;;;;;;;3.85;2.70;;;;;;;26.20;77.54;101585.94;4967260;28;20400;-78
2022/08/23 10:41:29;;;;;;;8.55;2.90;;;;;;;26.31;76.86;101584.50;4988466;28;20045;-78
2022/08/23 10:44:17;;;;;;;8.05;3.20;;;;;;;26.33;75.51;101588.00;4982461;28;20038;-79
2022/08/23 10:46:55;;;;;;;5.80;2.87;;;;;;;26.32;74.74;101587.13;4965392;28;20040;-79
2022/08/23 10:49:27;;;;;;;5.40;2.55;;;;;;;26.36;76.41;101590.56;4991559;28;20272;-79
2022/08/23 10:51:56;;;;;;;8.38;2.42;;;;;;;26.41;75.71;101583.97;4985053;28;20061;-79
2022/08/23 10:54:45;;;;;;;6.33;2.43;;;;;;;26.50;74.73;101587.13;4982704;28;20156;-79
2022/08/23 10:57:20;;;;;;;7.03;2.40;;;;;;;26.55;75.10;101590.47;4978729;28;20145;-80
2022/08/23 10:59:51;;;;;;;11.45;3.28;;;;;;;26.62;74.61;101582.00;4998215;28;20030;-79
2022/08/23 11:02:32;;;;;;;17.40;2.80;;;;;;;26.71;74.60;101577.94;4958448;28;20038;-80
2022/08/23 11:05:25;;;;;;;5.35;2.22;;;;;;;26.79;75.12;101581.09;4979872;28;20037;-80
2022/08/23 11:08:10;;;;;;;5.50;2.58;;;;;;;26.84;74.15;101579.03;4988965;28;20451;-79
2022/08/23 11:10:47;;;;;;;4.63;2.70;;;;;;;26.85;72.61;101582.59;4978963;28;20049;-79
2022/08/23 11:13:30;;;;;;;5.25;2.60;;;;;;;26.84;72.58;101570.91;4985899;28;20585;-80
2022/08/23 11:16:05;;;;;;;6.20;2.75;;;;;;;26.92;70.48;101580.41;4985695;28;20049;-80
2022/08/23 11:18:36;;;;;;;4.38;1.95;;;;;;;26.93;69.77;101576.78;4950369;28;20042;-80
2022/08/23 11:21:10;;;;;;;4.95;1.90;;;;;;;27.00;71.49;101578.19;4988119;28;20050;-80
2022/08/23 11:24:14;;;;;;;3.13;1.92;;;;;;;27.04;69.03;101575.22;4987917;28;20526;-80
2022/08/23 11:26:44;;;;;;;6.38;2.30;;;;;;;27.08;67.79;101575.06;4974351;28;20058;-81
2022/08/23 11:29:22;;;;;;;6.07;2.30;;;;;;;27.12;67.76;101572.09;4974328;28;20034;-81
2022/08/23 11:32:41;;;;;;;9.70;2.58;;;;;;;27.23;65.12;101574.22;4960736;28;20042;-81
2022/08/23 11:35:35;;;;;;;3.30;2.22;;;;;;;27.33;64.65;101578.19;5008783;28;20399;-82
2022/08/23 11:38:09;;;;;;;5.20;2.10;;;;;;;27.42;65.14;101579.50;5001465;28;20382;-81
2022/08/23 11:40:49;;;;;;;3.25;2.60;;;;;;;27.52;65.06;101578.03;5009079;28;20395;-81
2022/08/23 11:43:44;;;;;;;6.18;2.10;;;;;;;27.61;63.43;101577.50;4978803;28;20277;-81
2022/08/23 11:46:21;;;;;;;8.02;2.47;;;;;;;27.73;65.06;101575.06;5002865;28;20511;-82
2022/08/23 11:49:28;;;;;;;4.57;2.38;;;;;;;27.81;64.24;101568.25;4957587;28;20045;-81
2022/08/23 11:52:12;;;;;;;7.40;2.78;;;;;;;27.92;65.58;101581.19;5016508;28;20034;-80
2022/08/23 11:55:05;;;;;;;5.95;2.35;;;;;;;27.98;63.32;101580.84;4991998;28;20056;-80
2022/08/23 11:57:58;;;;;;;6.25;2.30;;;;;;;28.03;61.56;101576.97;4988772;28;20030;-80
2022/08/23 12:01:05;;;;;;;2.80;1.75;;;;;;;28.07;61.32;101576.72;4969780;28;20030;-81
2022/08/23 12:03:53;;;;;;;3.97;2.20;;;;;;;28.10;63.05;101579.22;4973208;28;20061;-80
2022/08/23 12:06:37;;;;;;;5.68;2.15;;;;;;;28.13;60.66;101570.94;4994997;28;20052;-80
2022/08/23 12:09:31;;;;;;;5.93;2.40;;;;;;;28.16;60.84;101570.72;4988844;28;20045;-79